KGRB/GRB METAR and TAF weather

Enter ICAO airport designator
Station Type Date Time Source
KGRB METAR 2024/06/15 22:53 UTC NOAA

KGRB 152253Z AUTO 15011KT 10SM -RA OVC110 22/13 A3002 RMK AO2 RAB50 SLP166 P0000 T02220128


Station Type Date Time Source
KGRB Decoded METAR 2024/06/15 22:53 UTC NOAA

AUSTIN STRAUBEL INTERNATIONAL AIRPORT , WI, United States (KGRB) 44-29N 088-08W 205M
Jun 15, 2024 - 06:53 PM EDT / 2024.06.15 2253 UTC
Wind: from the SSE (150 degrees) at 13 MPH (11 KT):0
Visibility: 10 mile(s):0
Sky conditions: overcast
Weather: light rain
Precipitation last hour: A trace
Temperature: 72.0 F (22.2 C)
Dew Point: 55.0 F (12.8 C)
Relative Humidity: 55%
Pressure (altimeter): 30.02 in. Hg (1016 hPa)
ob: KGRB 152253Z AUTO 15011KT 10SM -RA OVC110 22/13 A3002 RMK AO2 RAB50 SLP166 P0000 T02220128
cycle: 23

Station Type Date Time Source
KGRB TAF 2024/06/15 18:46 UTC NOAA